Ever Unicorn — 9V7963 — position and weather

sailwx.info

Track history (hours):
 
Tides and Currents Weather Stations Pressure Air Temp Water Temp Dewpoint Dewpoint Depression Visibility Wind Speed Wind Dir Waves Ship Positions

Ever Unicorn

Last reported at 2015-Apr-17 02:07 UTC. Time now 2015-Apr-18 04:54 UTC.
Position N 28°44' E 122°48'.

Length 285 m; draft 9.1 m.

Type: Ship (hazmat cat D). MMSI: 564995000.

Date/timePositionNaut miles runAvg speedWind from/ knotsBaromVisibWave heightAir tempDewpointWater temp
2015-Apr-17 02:07N 28°44' E 122°48'8214.6
2015-Apr-16 20:31N 30°02' E 123°18'2114.4
2015-Apr-16 19:05N 30°22' E 123°22'813.6
2015-Apr-16 18:28N 30°30' E 123°19'1314.3
2015-Apr-16 17:33N 30°43' E 123°22'1313.3
2015-Apr-16 16:34N 30°56' E 123°19'1313.2
2015-Apr-16 15:33N 31°09' E 123°20'1313.4
2015-Apr-16 14:33N 31°22' E 123°20'1312.8
2015-Apr-16 13:33N 31°35' E 123°21'1212.3
2015-Apr-16 12:34N 31°47' E 123°20'1312.6
2015-Apr-16 11:33N 32°00' E 123°18'1413.9
2015-Apr-16 10:33N 32°14' E 123°19'2015.0
2015-Apr-16 09:12N 32°34' E 123°19'66 3.7
2015-Apr-15 15:24N 33°40' E 123°16'170 8.9
2015-Apr-14 20:23N 35°42' E 120°53'1213.6
2015-Apr-14 19:28N 35°53' E 120°47'1213.2
2015-Apr-14 18:33N 35°58' E 120°33'1312.9
2015-Apr-14 17:33N 36°02' E 120°18'4 4.0
2015-Apr-14 16:31N 36°01' E 120°13'0 0.0
2015-Apr-14 15:31N 36°01' E 120°13'0 0.0
2015-Apr-14 14:31N 36°01' E 120°13'0 0.0
2015-Apr-14 13:25N 36°01' E 120°13'0 0.0
2015-Apr-14 12:13N 36°01' E 120°13'0 0.0
2015-Apr-14 11:31N 36°01' E 120°13'0 0.0
2015-Apr-14 10:25N 36°01' E 120°13'0 0.0
2015-Apr-14 09:31N 36°01' E 120°13'0 0.0
2015-Apr-14 08:31N 36°01' E 120°13'0 0.0
2015-Apr-14 07:31N 36°01' E 120°13'0 0.0
2015-Apr-14 06:31N 36°01' E 120°13'2 2.3
2015-Apr-14 05:33N 36°02' E 120°15'9 9.4
2015-Apr-14 04:33N 36°00' E 120°27'1313.2
2015-Apr-14 03:34N 35°58' E 120°42'41410.0
2015-Apr-12 10:09N 35°02' E 129°07'5 7.5
2015-Apr-12 09:33N 35°06' E 129°04'0 0.2
2015-Apr-12 08:33N 35°06' E 129°04'0 0.0
2015-Apr-12 07:33N 35°06' E 129°04'0 0.0
2015-Apr-12 06:30N 35°06' E 129°04'0 0.0
2015-Apr-12 05:33N 35°06' E 129°04'0 0.0
2015-Apr-12 04:33N 35°06' E 129°04'0 0.0
2015-Apr-12 03:34N 35°06' E 129°04'5 5.1
2015-Apr-12 02:32N 35°03' E 129°09'292 7.3
2015-Apr-10 10:33N 33°56' E 134°54'1515.4
2015-Apr-10 09:33N 34°11' E 134°57'1515.2
2015-Apr-10 08:33N 34°25' E 135°03'1717.5
2015-Apr-10 07:33N 34°36' E 135°20'5 4.4
2015-Apr-10 06:30N 34°39' E 135°24'0 0.0
2015-Apr-10 05:30N 34°39' E 135°24'0 0.0
2015-Apr-10 04:18N 34°39' E 135°24'0 0.0
2015-Apr-10 03:30N 34°39' E 135°24'0 0.0
2015-Apr-10 02:30N 34°39' E 135°24'0 0.1
2015-Apr-10 01:33N 34°39' E 135°24'8 7.5
2015-Apr-10 00:33N 34°34' E 135°18'1717.3
2015-Apr-09 23:33N 34°21' E 135°03'1312.6
2015-Apr-09 22:33N 34°09' E 134°60'9 8.8
2015-Apr-09 21:33N 34°00' E 134°60'22811.7
2015-Apr-09 02:08N 34°43' E 139°30'713.0
2015-Apr-09 01:34N 34°50' E 139°34'1313.4
2015-Apr-09 00:33N 35°02' E 139°41'1212.5
2015-Apr-08 23:33N 35°14' E 139°46'1212.0
2015-Apr-08 22:34N 35°26' E 139°44'1110.8
2015-Apr-08 21:33N 35°36' E 139°47'1 0.5
2015-Apr-08 20:32N 35°37' E 139°47'0 0.0
2015-Apr-08 19:29N 35°37' E 139°47'0 0.0
2015-Apr-08 18:32N 35°37' E 139°47'0 0.0
2015-Apr-08 17:32N 35°37' E 139°47'0 0.0
2015-Apr-08 16:29N 35°37' E 139°47'0 0.0
2015-Apr-08 15:26N 35°37' E 139°47'0 0.0
2015-Apr-08 14:29N 35°37' E 139°47'0 0.0
2015-Apr-08 13:29N 35°37' E 139°47'0 0.0
2015-Apr-08 12:32N 35°37' E 139°47'0 0.0
2015-Apr-08 11:29N 35°37' E 139°47'0 0.0
2015-Apr-08 10:32N 35°37' E 139°47'0 0.0
2015-Apr-08 09:29N 35°37' E 139°47'0 0.0
2015-Apr-08 08:26N 35°37' E 139°47'0 0.0
2015-Apr-08 07:32N 35°37' E 139°47'0 0.0
2015-Apr-08 06:26N 35°37' E 139°47'0 0.0
2015-Apr-08 05:26N 35°37' E 139°47'0 0.0
2015-Apr-08 04:26N 35°37' E 139°47'0 0.0
2015-Apr-08 03:23N 35°37' E 139°47'0 0.0
2015-Apr-08 02:32N 35°37' E 139°47'0 0.0
2015-Apr-08 01:32N 35°37' E 139°47'0 0.0
2015-Apr-08 00:29N 35°37' E 139°47'0 0.0
2015-Apr-07 23:33N 35°37' E 139°47'3 2.9
2015-Apr-07 22:34N 35°34' E 139°49'1010.0
2015-Apr-07 21:34N 35°24' E 139°46'1111.3
2015-Apr-07 20:34N 35°13' E 139°47'9 8.7
2015-Apr-07 19:33N 35°05' E 139°44'9 9.3
2015-Apr-07 18:33N 34°56' E 139°41'1412.5
2015-Apr-07 17:27N 34°50' E 139°56'1213.7
2015-Apr-07 16:33N 34°50' E 140°11'2913.3
2015-Apr-07 14:24N 35°06' E 140°40'  
Track history (hours):
 
Tides and Currents Weather Stations Pressure Air Temp Water Temp Dewpoint Dewpoint Depression Visibility Wind Speed Wind Dir Waves Ship Positions

Ever Unicorn

Last reported at 2015-Apr-17 02:07 UTC. Time now 2015-Apr-18 04:54 UTC.
Position N 28°44' E 122°48'.

Length 285 m; draft 9.1 m.

Type: Ship (hazmat cat D). MMSI: 564995000.

Date/timePositionNaut miles runAvg speedWind from/ knotsBaromVisibWave heightAir tempDewpointWater temp
2015-Apr-17 02:07N 28°44' E 122°48'8214.6
2015-Apr-16 20:31N 30°02' E 123°18'2114.4
2015-Apr-16 19:05N 30°22' E 123°22'813.6
2015-Apr-16 18:28N 30°30' E 123°19'1314.3
2015-Apr-16 17:33N 30°43' E 123°22'1313.3
2015-Apr-16 16:34N 30°56' E 123°19'1313.2
2015-Apr-16 15:33N 31°09' E 123°20'1313.4
2015-Apr-16 14:33N 31°22' E 123°20'1312.8
2015-Apr-16 13:33N 31°35' E 123°21'1212.3
2015-Apr-16 12:34N 31°47' E 123°20'1312.6
2015-Apr-16 11:33N 32°00' E 123°18'1413.9
2015-Apr-16 10:33N 32°14' E 123°19'2015.0
2015-Apr-16 09:12N 32°34' E 123°19'66 3.7
2015-Apr-15 15:24N 33°40' E 123°16'170 8.9
2015-Apr-14 20:23N 35°42' E 120°53'1213.6
2015-Apr-14 19:28N 35°53' E 120°47'1213.2
2015-Apr-14 18:33N 35°58' E 120°33'1312.9
2015-Apr-14 17:33N 36°02' E 120°18'4 4.0
2015-Apr-14 16:31N 36°01' E 120°13'0 0.0
2015-Apr-14 15:31N 36°01' E 120°13'0 0.0
2015-Apr-14 14:31N 36°01' E 120°13'0 0.0
2015-Apr-14 13:25N 36°01' E 120°13'0 0.0
2015-Apr-14 12:13N 36°01' E 120°13'0 0.0
2015-Apr-14 11:31N 36°01' E 120°13'0 0.0
2015-Apr-14 10:25N 36°01' E 120°13'0 0.0
2015-Apr-14 09:31N 36°01' E 120°13'0 0.0
2015-Apr-14 08:31N 36°01' E 120°13'0 0.0
2015-Apr-14 07:31N 36°01' E 120°13'0 0.0
2015-Apr-14 06:31N 36°01' E 120°13'2 2.3
2015-Apr-14 05:33N 36°02' E 120°15'9 9.4
2015-Apr-14 04:33N 36°00' E 120°27'1313.2
2015-Apr-14 03:34N 35°58' E 120°42'41410.0
2015-Apr-12 10:09N 35°02' E 129°07'5 7.5
2015-Apr-12 09:33N 35°06' E 129°04'0 0.2
2015-Apr-12 08:33N 35°06' E 129°04'0 0.0
2015-Apr-12 07:33N 35°06' E 129°04'0 0.0
2015-Apr-12 06:30N 35°06' E 129°04'0 0.0
2015-Apr-12 05:33N 35°06' E 129°04'0 0.0
2015-Apr-12 04:33N 35°06' E 129°04'0 0.0
2015-Apr-12 03:34N 35°06' E 129°04'5 5.1
2015-Apr-12 02:32N 35°03' E 129°09'292 7.3
2015-Apr-10 10:33N 33°56' E 134°54'1515.4
2015-Apr-10 09:33N 34°11' E 134°57'1515.2
2015-Apr-10 08:33N 34°25' E 135°03'1717.5
2015-Apr-10 07:33N 34°36' E 135°20'5 4.4
2015-Apr-10 06:30N 34°39' E 135°24'0 0.0
2015-Apr-10 05:30N 34°39' E 135°24'0 0.0
2015-Apr-10 04:18N 34°39' E 135°24'0 0.0
2015-Apr-10 03:30N 34°39' E 135°24'0 0.0
2015-Apr-10 02:30N 34°39' E 135°24'0 0.1
2015-Apr-10 01:33N 34°39' E 135°24'8 7.5
2015-Apr-10 00:33N 34°34' E 135°18'1717.3
2015-Apr-09 23:33N 34°21' E 135°03'1312.6
2015-Apr-09 22:33N 34°09' E 134°60'9 8.8
2015-Apr-09 21:33N 34°00' E 134°60'22811.7
2015-Apr-09 02:08N 34°43' E 139°30'713.0
2015-Apr-09 01:34N 34°50' E 139°34'1313.4
2015-Apr-09 00:33N 35°02' E 139°41'1212.5
2015-Apr-08 23:33N 35°14' E 139°46'1212.0
2015-Apr-08 22:34N 35°26' E 139°44'1110.8
2015-Apr-08 21:33N 35°36' E 139°47'1 0.5
2015-Apr-08 20:32N 35°37' E 139°47'0 0.0
2015-Apr-08 19:29N 35°37' E 139°47'0 0.0
2015-Apr-08 18:32N 35°37' E 139°47'0 0.0
2015-Apr-08 17:32N 35°37' E 139°47'0 0.0
2015-Apr-08 16:29N 35°37' E 139°47'0 0.0
2015-Apr-08 15:26N 35°37' E 139°47'0 0.0
2015-Apr-08 14:29N 35°37' E 139°47'0 0.0
2015-Apr-08 13:29N 35°37' E 139°47'0 0.0
2015-Apr-08 12:32N 35°37' E 139°47'0 0.0
2015-Apr-08 11:29N 35°37' E 139°47'0 0.0
2015-Apr-08 10:32N 35°37' E 139°47'0 0.0
2015-Apr-08 09:29N 35°37' E 139°47'0 0.0
2015-Apr-08 08:26N 35°37' E 139°47'0 0.0
2015-Apr-08 07:32N 35°37' E 139°47'0 0.0
2015-Apr-08 06:26N 35°37' E 139°47'0 0.0
2015-Apr-08 05:26N 35°37' E 139°47'0 0.0
2015-Apr-08 04:26N 35°37' E 139°47'0 0.0
2015-Apr-08 03:23N 35°37' E 139°47'0 0.0
2015-Apr-08 02:32N 35°37' E 139°47'0 0.0
2015-Apr-08 01:32N 35°37' E 139°47'0 0.0
2015-Apr-08 00:29N 35°37' E 139°47'0 0.0
2015-Apr-07 23:33N 35°37' E 139°47'3 2.9
2015-Apr-07 22:34N 35°34' E 139°49'1010.0
2015-Apr-07 21:34N 35°24' E 139°46'1111.3
2015-Apr-07 20:34N 35°13' E 139°47'9 8.7
2015-Apr-07 19:33N 35°05' E 139°44'9 9.3
2015-Apr-07 18:33N 34°56' E 139°41'1412.5
2015-Apr-07 17:27N 34°50' E 139°56'1213.7
2015-Apr-07 16:33N 34°50' E 140°11'2913.3
2015-Apr-07 14:24N 35°06' E 140°40'  

Dump ship's entire track history